createdAt,value
2023-02-08T00:01:13.840Z,13.80
2023-02-08T00:03:41.751Z,14.30
2023-02-08T00:06:10.372Z,13.87
2023-02-08T00:08:39.032Z,11.77
2023-02-08T00:11:07.473Z,14.33
2023-02-08T00:13:35.772Z,15.90
2023-02-08T00:16:03.891Z,13.27
2023-02-08T00:18:33.189Z,13.87
2023-02-08T00:21:01.054Z,14.57
2023-02-08T00:23:29.164Z,11.77
2023-02-08T00:25:56.967Z,11.80
2023-02-08T00:28:24.817Z,14.97
2023-02-08T00:30:53.333Z,12.10
2023-02-08T00:33:21.314Z,12.67
2023-02-08T00:35:50.544Z,13.97
2023-02-08T00:38:18.380Z,14.00
2023-02-08T00:40:46.179Z,13.83
2023-02-08T00:43:14.139Z,13.07
2023-02-08T00:45:41.950Z,10.53
2023-02-08T00:48:09.764Z,10.90
2023-02-08T00:50:38.203Z,12.87
2023-02-08T00:53:07.562Z,11.83
2023-02-08T00:55:35.411Z,11.23
2023-02-08T00:58:03.235Z,13.80
2023-02-08T01:00:31.177Z,12.47
2023-02-08T01:02:59.093Z,10.50
2023-02-08T01:05:26.836Z,12.97
2023-02-08T01:07:54.589Z,10.23
2023-02-08T01:10:23.684Z,13.03
2023-02-08T01:12:51.448Z,14.20
2023-02-08T01:15:19.436Z,10.43
2023-02-08T01:17:47.283Z,10.77
2023-02-08T01:20:15.119Z,12.87
2023-02-08T01:22:42.949Z,12.57
2023-02-08T01:25:11.124Z,12.80
2023-02-08T01:27:40.452Z,12.30
2023-02-08T01:30:09.703Z,9.80
2023-02-08T01:32:37.612Z,9.83
2023-02-08T01:35:05.940Z,11.77
2023-02-08T01:37:33.732Z,11.50
2023-02-08T01:40:01.565Z,8.70
2023-02-08T01:42:29.437Z,10.70
2023-02-08T01:45:30.007Z,8.50
2023-02-08T01:48:11.763Z,8.10
2023-02-08T01:50:47.573Z,12.47
2023-02-08T01:53:15.815Z,9.63
2023-02-08T01:55:48.138Z,12.00
2023-02-08T01:58:17.145Z,8.23
2023-02-08T02:00:47.125Z,8.93
2023-02-08T02:03:15.678Z,9.17
2023-02-08T02:05:47.221Z,9.43
2023-02-08T02:08:15.154Z,9.53
2023-02-08T02:10:43.742Z,9.90
2023-02-08T02:13:14.874Z,9.93
2023-02-08T02:15:44.583Z,9.37
2023-02-08T02:18:18.108Z,9.03
2023-02-08T02:21:06.535Z,8.90
2023-02-08T02:23:59.228Z,10.03
2023-02-08T02:26:59.052Z,8.17
2023-02-08T02:29:48.197Z,8.60
2023-02-08T02:32:29.996Z,9.43
2023-02-08T02:35:03.733Z,10.87
2023-02-08T02:37:49.112Z,12.20
2023-02-08T02:40:23.542Z,10.13
2023-02-08T02:43:14.756Z,8.13
2023-02-08T02:45:50.858Z,8.43
2023-02-08T02:48:30.983Z,11.63
2023-02-08T02:51:03.851Z,10.10
2023-02-08T02:53:48.629Z,11.50
2023-02-08T02:56:20.648Z,9.40
2023-02-08T02:58:48.495Z,10.07
2023-02-08T03:01:25.948Z,10.60
2023-02-08T03:03:55.583Z,10.10
2023-02-08T03:06:39.540Z,10.57
2023-02-08T03:09:32.018Z,11.57
2023-02-08T03:12:12.808Z,9.87
2023-02-08T03:14:52.696Z,7.70
2023-02-08T03:17:36.013Z,10.97
2023-02-08T03:20:10.156Z,8.27
2023-02-08T03:22:46.238Z,8.70
2023-02-08T03:25:20.867Z,10.10
2023-02-08T03:27:57.383Z,8.80
2023-02-08T03:30:31.851Z,8.93
2023-02-08T03:33:06.131Z,10.47
2023-02-08T03:35:40.977Z,6.77
2023-02-08T03:38:11.885Z,8.47
2023-02-08T03:40:43.703Z,11.27
2023-02-08T03:43:16.701Z,11.97
2023-02-08T03:45:48.603Z,7.60
2023-02-08T03:48:19.193Z,9.20
2023-02-08T03:50:52.593Z,11.20
2023-02-08T03:53:23.425Z,8.90
2023-02-08T03:55:56.972Z,13.80
2023-02-08T03:58:27.180Z,11.17
2023-02-08T04:01:00.673Z,11.00
2023-02-08T04:03:30.829Z,9.63
2023-02-08T04:06:00.202Z,10.43
2023-02-08T04:08:28.082Z,10.63
2023-02-08T04:10:55.942Z,10.87
2023-02-08T04:13:23.707Z,9.80
2023-02-08T04:15:51.581Z,8.90
2023-02-08T04:18:19.454Z,10.97
2023-02-08T04:20:47.230Z,7.43
2023-02-08T04:23:16.507Z,36.80
2023-02-08T04:25:44.657Z,18.57
2023-02-08T04:28:12.563Z,11.60
2023-02-08T04:30:40.662Z,9.17
2023-02-08T04:33:08.636Z,10.33
2023-02-08T04:35:36.429Z,9.33
2023-02-08T04:38:04.830Z,11.27
2023-02-08T04:40:33.971Z,11.10
2023-02-08T04:43:02.375Z,7.37
2023-02-08T04:45:32.088Z,10.13
2023-02-08T04:48:01.765Z,9.20
2023-02-08T04:50:29.783Z,10.77
2023-02-08T04:52:57.529Z,11.90
2023-02-08T04:55:25.434Z,9.70
2023-02-08T04:57:54.736Z,10.33
2023-02-08T05:00:22.553Z,10.50
2023-02-08T05:02:53.966Z,11.87
2023-02-08T05:05:21.913Z,11.57
2023-02-08T05:07:49.761Z,15.60
2023-02-08T05:10:17.962Z,11.30
2023-02-08T05:12:46.250Z,17.33
2023-02-08T05:15:15.454Z,21.27
2023-02-08T05:17:43.391Z,18.07
2023-02-08T05:20:13.264Z,15.50
2023-02-08T05:22:41.342Z,18.10
2023-02-08T05:25:09.900Z,16.63
2023-02-08T05:27:37.846Z,16.57
2023-02-08T05:30:06.517Z,16.47
2023-02-08T05:32:35.636Z,13.57
2023-02-08T05:35:03.387Z,13.90
2023-02-08T05:37:31.168Z,13.33
2023-02-08T05:39:59.172Z,13.87
2023-02-08T05:42:27.116Z,13.13
2023-02-08T05:44:54.933Z,10.37
2023-02-08T05:47:22.892Z,14.53
2023-02-08T05:49:52.057Z,11.27
2023-02-08T05:52:19.840Z,8.10
2023-02-08T05:54:47.705Z,9.10
2023-02-08T05:57:15.467Z,7.23
2023-02-08T05:59:43.237Z,9.30
2023-02-08T06:02:10.994Z,9.20
2023-02-08T06:04:39.265Z,9.97
2023-02-08T06:07:08.455Z,9.10
2023-02-08T06:09:36.226Z,8.87
2023-02-08T06:12:04.038Z,10.10
2023-02-08T06:14:31.762Z,9.37
2023-02-08T06:16:59.830Z,8.63
2023-02-08T06:19:27.555Z,9.60
2023-02-08T06:21:56.601Z,11.57
2023-02-08T06:24:25.729Z,9.13
2023-02-08T06:26:53.640Z,9.20
2023-02-08T06:29:21.379Z,11.53
2023-02-08T06:31:49.357Z,9.23
2023-02-08T06:34:17.248Z,11.07
2023-02-08T06:36:45.714Z,12.10
2023-02-08T06:39:13.530Z,9.67
2023-02-08T06:41:42.633Z,11.40
2023-02-08T06:44:10.404Z,11.43
2023-02-08T06:46:38.200Z,13.30
2023-02-08T06:49:05.951Z,10.20
2023-02-08T06:51:33.771Z,10.67
2023-02-08T06:54:01.546Z,13.47
2023-02-08T06:56:29.323Z,14.93
2023-02-08T06:58:58.788Z,9.33
2023-02-08T07:01:26.731Z,11.77
2023-02-08T07:03:54.594Z,12.33
2023-02-08T07:06:22.461Z,10.80
2023-02-08T07:08:50.352Z,11.27
2023-02-08T07:11:20.775Z,12.03
2023-02-08T07:13:49.491Z,13.20
2023-02-08T07:16:19.295Z,12.27
2023-02-08T07:18:47.324Z,11.00
2023-02-08T07:21:15.120Z,10.87
2023-02-08T07:23:43.012Z,15.53
2023-02-08T07:26:14.370Z,10.13
2023-02-08T07:28:42.481Z,13.50
2023-02-08T07:31:11.670Z,10.60
2023-02-08T07:33:40.948Z,12.03
2023-02-08T07:36:10.876Z,9.87
2023-02-08T07:38:39.115Z,11.37
2023-02-08T07:41:09.003Z,13.87
2023-02-08T07:43:37.604Z,12.73
2023-02-08T07:46:09.093Z,15.97
2023-02-08T07:48:40.041Z,12.57
2023-02-08T07:51:10.275Z,16.53
2023-02-08T07:53:38.653Z,10.00
2023-02-08T07:56:06.808Z,14.20
2023-02-08T07:58:34.706Z,13.13
2023-02-08T08:01:15.809Z,14.80
2023-02-08T08:03:49.316Z,14.10
2023-02-08T08:06:18.652Z,15.50
2023-02-08T08:08:47.583Z,16.57
2023-02-08T08:11:15.685Z,12.00
2023-02-08T08:13:43.560Z,13.90
2023-02-08T08:16:11.473Z,16.83
2023-02-08T08:18:39.315Z,14.80
2023-02-08T08:21:07.858Z,12.83
2023-02-08T08:23:37.161Z,13.60
2023-02-08T08:26:09.252Z,14.57
2023-02-08T08:28:37.873Z,14.77
2023-02-08T08:31:11.582Z,11.33
2023-02-08T08:33:39.633Z,13.13
2023-02-08T08:36:08.522Z,14.27
2023-02-08T08:38:38.615Z,17.97
2023-02-08T08:41:09.013Z,13.30
2023-02-08T08:43:36.790Z,11.40
2023-02-08T08:46:06.598Z,11.37
2023-02-08T08:48:34.676Z,14.10
2023-02-08T08:51:02.528Z,13.40
2023-02-08T08:53:30.505Z,11.87
2023-02-08T08:55:59.649Z,14.83
2023-02-08T08:58:27.573Z,14.93
2023-02-08T09:00:57.339Z,13.17
2023-02-08T09:03:25.265Z,11.60
2023-02-08T09:05:53.185Z,13.70
2023-02-08T09:08:21.060Z,10.40
2023-02-08T09:10:48.827Z,12.83
2023-02-08T09:13:19.777Z,12.53
2023-02-08T09:15:48.569Z,12.87
2023-02-08T09:18:16.715Z,17.60
2023-02-08T09:20:44.872Z,13.73
2023-02-08T09:23:14.401Z,12.50
2023-02-08T09:25:42.208Z,11.83
2023-02-08T09:28:10.039Z,15.33
2023-02-08T09:30:39.158Z,16.07
2023-02-08T09:33:07.024Z,12.57
2023-02-08T09:35:34.759Z,13.27
2023-02-08T09:38:04.424Z,9.30
2023-02-08T09:40:38.971Z,13.30
2023-02-08T09:43:13.264Z,13.43
2023-02-08T09:45:59.192Z,10.87
2023-02-08T09:48:32.557Z,12.37
2023-02-08T09:51:05.702Z,14.57
2023-02-08T09:53:36.304Z,13.70
2023-02-08T09:56:06.272Z,12.53
2023-02-08T09:58:38.743Z,12.47
2023-02-08T10:01:18.466Z,10.50
2023-02-08T10:03:47.853Z,13.50
2023-02-08T10:06:18.209Z,12.17
2023-02-08T10:08:48.861Z,8.90
2023-02-08T10:11:48.947Z,9.73
2023-02-08T10:14:34.739Z,9.23
2023-02-08T10:17:16.403Z,11.67
2023-02-08T10:20:00.782Z,10.73
2023-02-08T10:22:38.982Z,9.20
2023-02-08T10:25:24.487Z,6.60
2023-02-08T10:28:06.247Z,7.13
2023-02-08T10:30:42.782Z,4.63
2023-02-08T10:33:19.611Z,4.60
2023-02-08T10:35:50.889Z,6.27
2023-02-08T10:38:29.707Z,9.80
2023-02-08T10:41:04.386Z,6.63
2023-02-08T10:43:38.663Z,4.80
2023-02-08T10:46:12.835Z,5.70
2023-02-08T10:48:53.973Z,7.23
2023-02-08T10:51:22.731Z,5.60
2023-02-08T10:53:50.509Z,7.70
2023-02-08T10:56:37.501Z,6.23
2023-02-08T10:59:14.427Z,5.17
2023-02-08T11:01:42.773Z,4.90
2023-02-08T11:04:14.128Z,6.40
2023-02-08T11:06:43.588Z,5.83
2023-02-08T11:09:25.257Z,5.80
2023-02-08T11:11:53.819Z,8.17
2023-02-08T11:14:32.618Z,4.87
2023-02-08T11:17:05.880Z,6.70
2023-02-08T11:19:42.434Z,3.87
2023-02-08T11:22:17.505Z,4.47
2023-02-08T11:24:50.338Z,5.80
2023-02-08T11:27:29.776Z,3.60
2023-02-08T11:30:20.938Z,5.90
2023-02-08T11:32:50.277Z,4.50
2023-02-08T11:35:25.035Z,5.97
2023-02-08T11:37:55.069Z,8.93
2023-02-08T11:40:26.793Z,3.80
2023-02-08T11:42:55.402Z,3.33
2023-02-08T11:45:26.422Z,6.13
2023-02-08T11:47:54.825Z,5.50
2023-02-08T11:50:31.258Z,5.30
2023-02-08T11:53:00.426Z,4.77
2023-02-08T11:55:29.898Z,7.90
2023-02-08T11:58:01.435Z,4.33
2023-02-08T12:00:31.582Z,4.70
2023-02-08T12:03:01.698Z,5.33
2023-02-08T12:05:41.450Z,5.63
2023-02-08T12:08:17.649Z,5.80
2023-02-08T12:11:14.536Z,3.23
2023-02-08T12:13:57.505Z,4.80
2023-02-08T12:16:40.361Z,3.33
2023-02-08T12:19:33.697Z,4.53
2023-02-08T12:22:10.462Z,6.33
2023-02-08T12:24:48.207Z,5.00
2023-02-08T12:27:28.229Z,4.83
2023-02-08T12:30:05.108Z,5.93
2023-02-08T12:33:02.080Z,4.43
2023-02-08T12:36:07.513Z,3.50
2023-02-08T12:39:18.468Z,4.90
2023-02-08T12:42:06.044Z,5.77
2023-02-08T12:44:42.009Z,8.53
2023-02-08T12:47:26.980Z,5.37
2023-02-08T12:50:09.206Z,5.27
2023-02-08T12:52:41.145Z,9.30
2023-02-08T12:55:18.785Z,6.10
2023-02-08T12:57:50.613Z,7.67
2023-02-08T13:00:22.861Z,8.80
2023-02-08T13:02:57.687Z,9.43
2023-02-08T13:05:30.989Z,7.80
2023-02-08T13:08:03.896Z,8.30
2023-02-08T13:10:37.556Z,5.80
2023-02-08T13:13:14.355Z,8.77
2023-02-08T13:15:45.610Z,9.03
2023-02-08T13:18:18.433Z,7.47
2023-02-08T13:20:50.527Z,6.20
2023-02-08T13:23:25.501Z,7.50
2023-02-08T13:25:59.119Z,5.67
2023-02-08T13:28:28.075Z,8.43
2023-02-08T13:31:01.953Z,9.00
2023-02-08T13:33:35.918Z,8.93
2023-02-08T13:36:04.480Z,9.30
2023-02-08T13:38:34.754Z,7.07
2023-02-08T13:41:15.567Z,12.07
2023-02-08T13:43:48.430Z,8.07
2023-02-08T13:46:17.889Z,10.30
2023-02-08T13:48:48.716Z,10.20
2023-02-08T13:52:03.274Z,7.70
2023-02-08T13:54:31.061Z,6.73
2023-02-08T13:57:00.245Z,9.20
2023-02-08T13:59:35.023Z,9.60
2023-02-08T14:02:28.137Z,7.93
2023-02-08T14:05:15.388Z,8.30
2023-02-08T14:07:45.910Z,8.77
2023-02-08T14:10:37.361Z,7.83
2023-02-08T14:13:17.097Z,6.57
2023-02-08T14:15:45.629Z,11.43
2023-02-08T14:18:26.443Z,10.70
2023-02-08T14:21:03.555Z,13.43
2023-02-08T14:23:33.599Z,8.27
2023-02-08T14:26:08.271Z,7.30
2023-02-08T14:28:40.382Z,5.87
2023-02-08T14:31:11.837Z,9.67
2023-02-08T14:33:42.321Z,6.60
2023-02-08T14:36:26.300Z,9.17
2023-02-08T14:39:07.279Z,8.40
2023-02-08T14:42:05.374Z,9.87
2023-02-08T14:45:00.319Z,11.47
2023-02-08T14:48:01.895Z,10.73
2023-02-08T14:50:43.390Z,9.57
2023-02-08T14:53:26.115Z,7.53
2023-02-08T14:56:00.113Z,10.20
2023-02-08T14:58:31.263Z,11.20
2023-02-08T15:01:03.216Z,9.47
2023-02-08T15:03:33.077Z,7.77
2023-02-08T15:06:49.952Z,12.87
2023-02-08T15:09:21.541Z,10.37
2023-02-08T15:11:54.307Z,10.43
2023-02-08T15:14:22.868Z,12.17
2023-02-08T15:16:53.904Z,10.97
2023-02-08T15:19:25.242Z,11.40
2023-02-08T15:21:53.168Z,9.47
2023-02-08T15:24:23.392Z,10.03
2023-02-08T15:26:53.408Z,13.70
2023-02-08T15:29:30.053Z,12.47
2023-02-08T15:32:05.314Z,10.57
2023-02-08T15:34:33.539Z,11.17
2023-02-08T15:37:01.317Z,12.43
2023-02-08T15:39:34.770Z,11.27
2023-02-08T15:42:03.150Z,10.50
2023-02-08T15:44:33.280Z,15.20
2023-02-08T15:47:03.342Z,11.57
2023-02-08T15:49:36.473Z,11.40
2023-02-08T15:52:05.393Z,17.60
2023-02-08T15:54:33.275Z,14.30
2023-02-08T15:57:04.124Z,13.83
2023-02-08T15:59:34.641Z,14.73
2023-02-08T16:02:19.467Z,17.77
2023-02-08T16:04:48.888Z,12.97
2023-02-08T16:07:25.270Z,14.70
2023-02-08T16:09:53.363Z,17.37
2023-02-08T16:12:23.243Z,13.60
2023-02-08T16:14:52.952Z,10.47
2023-02-08T16:17:34.209Z,15.83
2023-02-08T16:20:03.487Z,15.60
2023-02-08T16:22:33.689Z,12.37
2023-02-08T16:25:32.950Z,14.10
2023-02-08T16:28:00.985Z,14.30
2023-02-08T16:30:28.908Z,15.57
2023-02-08T16:32:56.860Z,16.43
2023-02-08T16:35:30.047Z,15.43
2023-02-08T16:38:00.722Z,18.37
2023-02-08T16:40:48.948Z,11.83
2023-02-08T16:43:18.837Z,13.80
2023-02-08T16:45:46.720Z,15.43
2023-02-08T16:48:33.279Z,20.93
2023-02-08T16:51:02.830Z,16.47
2023-02-08T16:53:40.388Z,18.30
2023-02-08T16:56:11.126Z,13.57
2023-02-08T16:58:39.188Z,18.70
2023-02-08T17:01:07.757Z,13.57
2023-02-08T17:03:37.948Z,14.60
2023-02-08T17:06:07.827Z,13.17
2023-02-08T17:08:37.426Z,15.13
2023-02-08T17:11:05.383Z,14.67
2023-02-08T17:13:33.132Z,15.23
2023-02-08T17:16:01.217Z,13.37
2023-02-08T17:18:29.068Z,18.33
2023-02-08T17:20:59.725Z,20.33
2023-02-08T17:23:29.136Z,21.87
2023-02-08T17:25:58.064Z,28.70
2023-02-08T17:28:25.929Z,30.00
2023-02-08T17:30:54.085Z,19.50
2023-02-08T17:33:21.930Z,16.73
2023-02-08T17:35:51.905Z,19.27
2023-02-08T17:38:20.255Z,22.57
2023-02-08T17:40:49.509Z,18.10
2023-02-08T17:43:17.731Z,20.63
2023-02-08T17:45:45.861Z,25.07
2023-02-08T17:48:15.201Z,41.50
2023-02-08T17:50:46.436Z,48.23
2023-02-08T17:53:15.814Z,28.40
2023-02-08T17:55:44.240Z,22.50
2023-02-08T17:58:14.106Z,22.00
2023-02-08T18:00:42.119Z,22.90
2023-02-08T18:03:10.037Z,27.67
2023-02-08T18:05:37.886Z,22.43
2023-02-08T18:08:06.010Z,20.00
2023-02-08T18:10:34.231Z,24.33
2023-02-08T18:13:02.135Z,23.00
2023-02-08T18:15:31.242Z,19.67
2023-02-08T18:17:58.973Z,18.23
2023-02-08T18:20:26.695Z,25.53
2023-02-08T18:22:54.426Z,25.20
2023-02-08T18:25:22.164Z,22.73
2023-02-08T18:27:50.073Z,22.00
2023-02-08T18:30:17.934Z,23.37
2023-02-08T18:32:47.247Z,21.90
2023-02-08T18:35:15.019Z,20.13
2023-02-08T18:37:42.750Z,19.27
2023-02-08T18:40:12.267Z,20.33
2023-02-08T18:42:40.048Z,17.53
2023-02-08T18:45:08.659Z,17.70
2023-02-08T18:47:37.080Z,21.50
2023-02-08T18:50:07.040Z,21.53
2023-02-08T18:52:35.330Z,22.87
2023-02-08T18:55:03.294Z,22.10
2023-02-08T18:57:31.048Z,19.57
2023-02-08T18:59:58.775Z,19.07
2023-02-08T19:02:27.380Z,19.83
2023-02-08T19:04:55.117Z,24.67
2023-02-08T19:07:24.295Z,24.63
2023-02-08T19:09:52.051Z,23.20
2023-02-08T19:12:21.036Z,18.17
2023-02-08T19:14:50.528Z,28.67
2023-02-08T19:17:18.654Z,21.83
2023-02-08T19:19:46.536Z,21.93
2023-02-08T19:22:14.490Z,25.83
2023-02-08T19:24:43.593Z,33.73
2023-02-08T19:27:11.343Z,30.03
2023-02-08T19:29:39.057Z,28.97
2023-02-08T19:32:07.976Z,24.87
2023-02-08T19:34:35.784Z,21.60
2023-02-08T19:37:03.647Z,26.23
2023-02-08T19:39:31.452Z,28.70
2023-02-08T19:42:00.719Z,26.40
2023-02-08T19:44:30.504Z,22.83
2023-02-08T19:46:59.081Z,22.23
2023-02-08T19:49:28.336Z,24.00
2023-02-08T19:51:57.081Z,20.67
2023-02-08T19:54:25.262Z,22.90
2023-02-08T19:56:54.692Z,22.77
2023-02-08T19:59:25.783Z,23.73
2023-02-08T20:01:54.094Z,31.97
2023-02-08T20:04:22.164Z,46.40
2023-02-08T20:06:52.460Z,36.53
2023-02-08T20:09:20.681Z,25.80
2023-02-08T20:11:57.946Z,29.40
2023-02-08T20:14:28.935Z,22.60
2023-02-08T20:16:56.768Z,22.83
2023-02-08T20:19:25.015Z,30.57
2023-02-08T20:21:53.360Z,38.37
2023-02-08T20:24:21.584Z,35.60
2023-02-08T20:26:49.977Z,32.73
2023-02-08T20:29:18.504Z,27.33
2023-02-08T20:31:51.988Z,20.50
2023-02-08T20:34:19.873Z,27.57
2023-02-08T20:37:05.302Z,29.93
2023-02-08T20:39:33.969Z,27.70
2023-02-08T20:42:01.752Z,19.03
2023-02-08T20:44:29.502Z,25.30
2023-02-08T20:46:58.599Z,28.63
2023-02-08T20:49:26.821Z,30.07
2023-02-08T20:51:55.250Z,30.00
2023-02-08T20:54:24.869Z,31.00
2023-02-08T20:56:53.889Z,24.87
2023-02-08T20:59:21.970Z,29.53
2023-02-08T21:01:50.221Z,24.90
2023-02-08T21:04:23.131Z,25.10
2023-02-08T21:06:51.786Z,28.97
2023-02-08T21:09:20.318Z,27.57
2023-02-08T21:11:48.274Z,31.90
2023-02-08T21:14:19.015Z,31.67
2023-02-08T21:16:48.338Z,25.60
2023-02-08T21:19:17.096Z,30.43
2023-02-08T21:21:46.248Z,30.47
2023-02-08T21:24:14.494Z,29.70
2023-02-08T21:26:42.409Z,28.10
2023-02-08T21:29:10.416Z,23.10
2023-02-08T21:31:38.324Z,26.57
2023-02-08T21:34:06.908Z,25.73
2023-02-08T21:36:35.081Z,25.93
2023-02-08T21:39:04.772Z,24.10
2023-02-08T21:41:34.482Z,22.23
2023-02-08T21:44:04.364Z,23.90
2023-02-08T21:46:33.090Z,28.43
2023-02-08T21:49:19.024Z,28.90
2023-02-08T21:52:04.991Z,29.73
2023-02-08T21:54:53.082Z,33.33
2023-02-08T21:57:22.757Z,38.77
2023-02-08T21:59:52.159Z,26.63
2023-02-08T22:02:21.907Z,22.27
2023-02-08T22:04:50.328Z,20.83
2023-02-08T22:07:18.204Z,23.10
2023-02-08T22:09:47.388Z,29.07
2023-02-08T22:12:17.454Z,22.67
2023-02-08T22:14:45.358Z,26.80
2023-02-08T22:17:13.161Z,21.90
2023-02-08T22:19:41.871Z,26.27
2023-02-08T22:22:10.177Z,26.27
2023-02-08T22:24:38.143Z,19.70
2023-02-08T22:27:07.374Z,15.27
2023-02-08T22:29:35.277Z,23.73
2023-02-08T22:32:03.167Z,22.93
2023-02-08T22:34:31.053Z,17.17
2023-02-08T22:36:58.880Z,19.83
2023-02-08T22:39:26.638Z,19.07
2023-02-08T22:41:54.430Z,22.17
2023-02-08T22:44:23.547Z,20.60
2023-02-08T22:46:51.337Z,22.83
2023-02-08T22:49:19.105Z,17.83
2023-02-08T22:51:46.894Z,19.10
2023-02-08T22:54:14.659Z,20.83
2023-02-08T22:56:42.427Z,23.53
2023-02-08T22:59:10.255Z,17.97
2023-02-08T23:01:39.512Z,20.00
2023-02-08T23:04:07.345Z,19.27
2023-02-08T23:06:35.550Z,19.60
2023-02-08T23:09:04.912Z,20.93
2023-02-08T23:11:33.180Z,22.23
2023-02-08T23:14:01.462Z,27.40
2023-02-08T23:16:29.267Z,26.27
2023-02-08T23:18:58.402Z,27.47
2023-02-08T23:21:26.173Z,42.07
2023-02-08T23:23:54.240Z,28.17
2023-02-08T23:26:23.454Z,24.80
2023-02-08T23:28:52.610Z,21.17
2023-02-08T23:31:21.399Z,25.07
2023-02-08T23:33:49.469Z,21.93
2023-02-08T23:36:21.873Z,34.30
2023-02-08T23:38:50.541Z,24.87
2023-02-08T23:41:20.866Z,20.30
2023-02-08T23:43:50.070Z,22.00
2023-02-08T23:46:20.314Z,23.20
2023-02-08T23:48:48.827Z,24.13
2023-02-08T23:51:19.418Z,24.27
2023-02-08T23:53:47.193Z,18.60
2023-02-08T23:56:16.846Z,21.73
2023-02-08T23:58:45.949Z,24.73
